sensor_id;sensor_type;location;lat;lon;timestamp;P1;durP1;ratioP1;P2;durP2;ratioP2
14472;SDS011;7322;50.872;4.386;2023-06-19T00:02:27;4.43;;;3.88;;
14472;SDS011;7322;50.872;4.386;2023-06-19T00:05:01;4.50;;;4.10;;
14472;SDS011;7322;50.872;4.386;2023-06-19T00:10:35;4.40;;;4.00;;
14472;SDS011;7322;50.872;4.386;2023-06-19T00:13:17;5.03;;;4.05;;
14472;SDS011;7322;50.872;4.386;2023-06-19T00:41:29;4.03;;;3.30;;
14472;SDS011;7322;50.872;4.386;2023-06-19T00:56:30;3.75;;;2.90;;
14472;SDS011;7322;50.872;4.386;2023-06-19T01:07:52;3.88;;;2.47;;
14472;SDS011;7322;50.872;4.386;2023-06-19T01:13:28;4.07;;;2.70;;
14472;SDS011;7322;50.872;4.386;2023-06-19T01:16:09;3.10;;;2.70;;
14472;SDS011;7322;50.872;4.386;2023-06-19T01:18:44;3.78;;;2.60;;
14472;SDS011;7322;50.872;4.386;2023-06-19T01:24:23;3.20;;;2.70;;
14472;SDS011;7322;50.872;4.386;2023-06-19T01:26:57;4.13;;;3.00;;
14472;SDS011;7322;50.872;4.386;2023-06-19T01:29:26;5.07;;;2.90;;
14472;SDS011;7322;50.872;4.386;2023-06-19T01:32:06;5.07;;;2.72;;
14472;SDS011;7322;50.872;4.386;2023-06-19T01:48:57;5.15;;;2.80;;
14472;SDS011;7322;50.872;4.386;2023-06-19T01:54:24;4.57;;;2.78;;
14472;SDS011;7322;50.872;4.386;2023-06-19T01:57:00;5.53;;;2.60;;
14472;SDS011;7322;50.872;4.386;2023-06-19T01:59:43;3.80;;;2.53;;
14472;SDS011;7322;50.872;4.386;2023-06-19T02:02:14;3.13;;;2.40;;
14472;SDS011;7322;50.872;4.386;2023-06-19T02:04:50;3.63;;;2.63;;
14472;SDS011;7322;50.872;4.386;2023-06-19T02:10:34;5.38;;;3.00;;
14472;SDS011;7322;50.872;4.386;2023-06-19T02:13:03;3.58;;;2.47;;
14472;SDS011;7322;50.872;4.386;2023-06-19T02:15:43;2.83;;;2.28;;
14472;SDS011;7322;50.872;4.386;2023-06-19T02:18:21;3.25;;;2.78;;
14472;SDS011;7322;50.872;4.386;2023-06-19T02:21:01;4.38;;;2.97;;
14472;SDS011;7322;50.872;4.386;2023-06-19T02:23:43;4.40;;;2.80;;
14472;SDS011;7322;50.872;4.386;2023-06-19T02:26:16;3.67;;;2.50;;
14472;SDS011;7322;50.872;4.386;2023-06-19T02:32:07;4.47;;;2.72;;
14472;SDS011;7322;50.872;4.386;2023-06-19T02:37:38;2.88;;;2.60;;
14472;SDS011;7322;50.872;4.386;2023-06-19T02:45:57;3.78;;;2.33;;
14472;SDS011;7322;50.872;4.386;2023-06-19T02:48:35;5.18;;;2.63;;
14472;SDS011;7322;50.872;4.386;2023-06-19T02:51:04;3.60;;;2.63;;
14472;SDS011;7322;50.872;4.386;2023-06-19T02:53:38;4.47;;;2.75;;
14472;SDS011;7322;50.872;4.386;2023-06-19T03:04:43;4.05;;;2.50;;
14472;SDS011;7322;50.872;4.386;2023-06-19T03:16:27;5.78;;;2.60;;
14472;SDS011;7322;50.872;4.386;2023-06-19T03:18:54;3.88;;;2.75;;
14472;SDS011;7322;50.872;4.386;2023-06-19T03:21:28;3.90;;;3.03;;
14472;SDS011;7322;50.872;4.386;2023-06-19T03:24:00;5.20;;;2.80;;
14472;SDS011;7322;50.872;4.386;2023-06-19T03:26:33;5.40;;;3.13;;
14472;SDS011;7322;50.872;4.386;2023-06-19T03:29:07;5.38;;;3.38;;
14472;SDS011;7322;50.872;4.386;2023-06-19T03:31:38;6.68;;;3.28;;
14472;SDS011;7322;50.872;4.386;2023-06-19T03:34:22;5.75;;;3.10;;
14472;SDS011;7322;50.872;4.386;2023-06-19T03:36:58;3.50;;;2.90;;
14472;SDS011;7322;50.872;4.386;2023-06-19T03:42:49;5.88;;;3.28;;
14472;SDS011;7322;50.872;4.386;2023-06-19T03:45:22;3.88;;;2.60;;
14472;SDS011;7322;50.872;4.386;2023-06-19T03:47:51;5.50;;;2.97;;
14472;SDS011;7322;50.872;4.386;2023-06-19T03:53:26;5.10;;;3.00;;
14472;SDS011;7322;50.872;4.386;2023-06-19T03:55:56;5.25;;;2.70;;
14472;SDS011;7322;50.872;4.386;2023-06-19T03:58:37;3.17;;;2.80;;
14472;SDS011;7322;50.872;4.386;2023-06-19T04:03:47;4.10;;;3.10;;
14472;SDS011;7322;50.872;4.386;2023-06-19T04:06:15;3.70;;;2.50;;
14472;SDS011;7322;50.872;4.386;2023-06-19T04:09:02;3.65;;;2.80;;
14472;SDS011;7322;50.872;4.386;2023-06-19T04:14:26;3.15;;;2.60;;
14472;SDS011;7322;50.872;4.386;2023-06-19T04:20:00;3.60;;;3.00;;
14472;SDS011;7322;50.872;4.386;2023-06-19T04:22:32;3.55;;;3.03;;
14472;SDS011;7322;50.872;4.386;2023-06-19T04:28:10;4.47;;;3.25;;
14472;SDS011;7322;50.872;4.386;2023-06-19T04:33:36;3.83;;;3.42;;
14472;SDS011;7322;50.872;4.386;2023-06-19T04:36:17;4.97;;;3.63;;
14472;SDS011;7322;50.872;4.386;2023-06-19T04:38:48;5.70;;;3.40;;
14472;SDS011;7322;50.872;4.386;2023-06-19T04:41:25;3.33;;;3.03;;
14472;SDS011;7322;50.872;4.386;2023-06-19T04:44:10;3.55;;;3.25;;
14472;SDS011;7322;50.872;4.386;2023-06-19T04:49:27;5.00;;;3.85;;
14472;SDS011;7322;50.872;4.386;2023-06-19T04:52:04;3.97;;;3.58;;
14472;SDS011;7322;50.872;4.386;2023-06-19T04:54:35;5.93;;;3.60;;
14472;SDS011;7322;50.872;4.386;2023-06-19T04:59:51;4.85;;;3.85;;
14472;SDS011;7322;50.872;4.386;2023-06-19T05:13:26;4.75;;;4.10;;
14472;SDS011;7322;50.872;4.386;2023-06-19T05:18:53;6.80;;;4.75;;
14472;SDS011;7322;50.872;4.386;2023-06-19T05:24:13;6.72;;;4.70;;
14472;SDS011;7322;50.872;4.386;2023-06-19T05:26:41;5.15;;;4.45;;
14472;SDS011;7322;50.872;4.386;2023-06-19T05:40:59;8.15;;;5.55;;
14472;SDS011;7322;50.872;4.386;2023-06-19T05:43:26;8.32;;;5.80;;
14472;SDS011;7322;50.872;4.386;2023-06-19T05:45:54;7.55;;;6.15;;
14472;SDS011;7322;50.872;4.386;2023-06-19T05:48:35;9.05;;;6.60;;
14472;SDS011;7322;50.872;4.386;2023-06-19T05:53:57;9.15;;;6.20;;
14472;SDS011;7322;50.872;4.386;2023-06-19T05:56:28;6.65;;;5.68;;
14472;SDS011;7322;50.872;4.386;2023-06-19T05:58:56;12.00;;;6.40;;
14472;SDS011;7322;50.872;4.386;2023-06-19T06:01:23;9.07;;;6.47;;
14472;SDS011;7322;50.872;4.386;2023-06-19T06:04:00;11.70;;;7.10;;
14472;SDS011;7322;50.872;4.386;2023-06-19T06:15:28;8.63;;;6.43;;
14472;SDS011;7322;50.872;4.386;2023-06-19T06:18:07;10.80;;;6.45;;
14472;SDS011;7322;50.872;4.386;2023-06-19T06:20:43;14.02;;;6.68;;
14472;SDS011;7322;50.872;4.386;2023-06-19T06:28:36;12.60;;;7.03;;
14472;SDS011;7322;50.872;4.386;2023-06-19T06:31:17;8.93;;;6.68;;
14472;SDS011;7322;50.872;4.386;2023-06-19T06:34:01;7.35;;;6.65;;
14472;SDS011;7322;50.872;4.386;2023-06-19T06:42:28;10.90;;;7.63;;
14472;SDS011;7322;50.872;4.386;2023-06-19T06:44:58;8.50;;;7.60;;
14472;SDS011;7322;50.872;4.386;2023-06-19T06:50:34;11.75;;;8.38;;
14472;SDS011;7322;50.872;4.386;2023-06-19T07:01:52;8.98;;;7.78;;
14472;SDS011;7322;50.872;4.386;2023-06-19T07:04:23;8.55;;;7.65;;
14472;SDS011;7322;50.872;4.386;2023-06-19T07:22:49;11.40;;;8.85;;
14472;SDS011;7322;50.872;4.386;2023-06-19T07:25:22;10.00;;;8.52;;
14472;SDS011;7322;50.872;4.386;2023-06-19T07:27:57;10.98;;;8.43;;
14472;SDS011;7322;50.872;4.386;2023-06-19T07:30:26;10.38;;;9.05;;
14472;SDS011;7322;50.872;4.386;2023-06-19T07:33:07;10.75;;;8.23;;
14472;SDS011;7322;50.872;4.386;2023-06-19T07:35:39;10.13;;;8.10;;
14472;SDS011;7322;50.872;4.386;2023-06-19T07:38:19;9.25;;;8.07;;
14472;SDS011;7322;50.872;4.386;2023-06-19T07:40:57;9.38;;;8.23;;
14472;SDS011;7322;50.872;4.386;2023-06-19T07:43:40;9.95;;;8.25;;
14472;SDS011;7322;50.872;4.386;2023-06-19T07:46:25;8.20;;;7.50;;
14472;SDS011;7322;50.872;4.386;2023-06-19T07:48:54;9.05;;;7.25;;
14472;SDS011;7322;50.872;4.386;2023-06-19T07:51:27;9.52;;;7.78;;
14472;SDS011;7322;50.872;4.386;2023-06-19T07:53:57;9.15;;;8.13;;
14472;SDS011;7322;50.872;4.386;2023-06-19T07:56:26;8.18;;;7.38;;
14472;SDS011;7322;50.872;4.386;2023-06-19T07:59:01;9.48;;;7.60;;
14472;SDS011;7322;50.872;4.386;2023-06-19T08:01:28;10.40;;;7.05;;
14472;SDS011;7322;50.872;4.386;2023-06-19T08:03:56;8.27;;;7.38;;
14472;SDS011;7322;50.872;4.386;2023-06-19T08:08:55;8.20;;;7.40;;
14472;SDS011;7322;50.872;4.386;2023-06-19T08:11:25;7.72;;;6.93;;
14472;SDS011;7322;50.872;4.386;2023-06-19T08:14:04;8.30;;;7.03;;
14472;SDS011;7322;50.872;4.386;2023-06-19T08:16:39;7.45;;;6.80;;
14472;SDS011;7322;50.872;4.386;2023-06-19T08:19:06;8.15;;;7.25;;
14472;SDS011;7322;50.872;4.386;2023-06-19T08:21:43;8.23;;;7.03;;
14472;SDS011;7322;50.872;4.386;2023-06-19T08:24:12;7.70;;;6.90;;
14472;SDS011;7322;50.872;4.386;2023-06-19T08:29:12;7.38;;;6.15;;
14472;SDS011;7322;50.872;4.386;2023-06-19T08:31:39;6.88;;;5.93;;
14472;SDS011;7322;50.872;4.386;2023-06-19T08:34:07;9.50;;;6.15;;
14472;SDS011;7322;50.872;4.386;2023-06-19T08:36:36;8.60;;;5.60;;
14472;SDS011;7322;50.872;4.386;2023-06-19T08:39:08;6.30;;;5.68;;
14472;SDS011;7322;50.872;4.386;2023-06-19T08:41:38;6.35;;;5.75;;
14472;SDS011;7322;50.872;4.386;2023-06-19T08:46:51;6.32;;;5.57;;
14472;SDS011;7322;50.872;4.386;2023-06-19T08:49:18;6.75;;;6.15;;
14472;SDS011;7322;50.872;4.386;2023-06-19T08:51:46;7.72;;;6.28;;
14472;SDS011;7322;50.872;4.386;2023-06-19T08:54:23;9.10;;;6.57;;
14472;SDS011;7322;50.872;4.386;2023-06-19T08:56:52;7.95;;;6.15;;
14472;SDS011;7322;50.872;4.386;2023-06-19T08:59:22;6.95;;;6.25;;
14472;SDS011;7322;50.872;4.386;2023-06-19T09:01:53;6.55;;;5.65;;
14472;SDS011;7322;50.872;4.386;2023-06-19T09:04:27;9.68;;;6.38;;
14472;SDS011;7322;50.872;4.386;2023-06-19T09:06:57;7.30;;;5.82;;
14472;SDS011;7322;50.872;4.386;2023-06-19T09:09:27;9.80;;;6.50;;
14472;SDS011;7322;50.872;4.386;2023-06-19T09:12:01;10.00;;;5.53;;
14472;SDS011;7322;50.872;4.386;2023-06-19T09:14:43;7.85;;;6.00;;
14472;SDS011;7322;50.872;4.386;2023-06-19T09:17:21;8.57;;;6.40;;
14472;SDS011;7322;50.872;4.386;2023-06-19T09:19:56;7.25;;;5.90;;
14472;SDS011;7322;50.872;4.386;2023-06-19T09:22:22;8.70;;;6.82;;
14472;SDS011;7322;50.872;4.386;2023-06-19T09:24:59;9.65;;;6.32;;
14472;SDS011;7322;50.872;4.386;2023-06-19T09:27:32;7.00;;;5.47;;
14472;SDS011;7322;50.872;4.386;2023-06-19T09:30:00;7.63;;;5.13;;
14472;SDS011;7322;50.872;4.386;2023-06-19T09:32:29;7.55;;;6.40;;
14472;SDS011;7322;50.872;4.386;2023-06-19T09:35:09;8.18;;;6.15;;
14472;SDS011;7322;50.872;4.386;2023-06-19T09:40:17;10.45;;;6.45;;
14472;SDS011;7322;50.872;4.386;2023-06-19T09:42:58;9.00;;;6.45;;
14472;SDS011;7322;50.872;4.386;2023-06-19T09:45:27;8.80;;;6.10;;
14472;SDS011;7322;50.872;4.386;2023-06-19T09:47:57;12.50;;;6.43;;
14472;SDS011;7322;50.872;4.386;2023-06-19T09:53:27;7.22;;;6.28;;
14472;SDS011;7322;50.872;4.386;2023-06-19T09:56:13;8.70;;;6.43;;
14472;SDS011;7322;50.872;4.386;2023-06-19T10:04:25;7.28;;;5.53;;
14472;SDS011;7322;50.872;4.386;2023-06-19T10:07:02;7.25;;;5.32;;
14472;SDS011;7322;50.872;4.386;2023-06-19T10:09:36;7.47;;;5.68;;
14472;SDS011;7322;50.872;4.386;2023-06-19T10:12:13;8.80;;;5.85;;
14472;SDS011;7322;50.872;4.386;2023-06-19T10:17:22;8.48;;;6.22;;
14472;SDS011;7322;50.872;4.386;2023-06-19T10:19:57;8.15;;;6.07;;
14472;SDS011;7322;50.872;4.386;2023-06-19T10:22:29;9.60;;;6.03;;
14472;SDS011;7322;50.872;4.386;2023-06-19T10:24:57;8.18;;;6.22;;
14472;SDS011;7322;50.872;4.386;2023-06-19T10:27:33;7.82;;;6.22;;
14472;SDS011;7322;50.872;4.386;2023-06-19T10:32:46;8.02;;;6.13;;
14472;SDS011;7322;50.872;4.386;2023-06-19T10:35:13;7.72;;;6.35;;
14472;SDS011;7322;50.872;4.386;2023-06-19T10:40:33;8.32;;;5.70;;
14472;SDS011;7322;50.872;4.386;2023-06-19T10:45:39;9.50;;;6.95;;
14472;SDS011;7322;50.872;4.386;2023-06-19T10:48:09;6.93;;;5.75;;
14472;SDS011;7322;50.872;4.386;2023-06-19T10:50:37;8.60;;;6.10;;
14472;SDS011;7322;50.872;4.386;2023-06-19T10:53:09;8.85;;;6.60;;
14472;SDS011;7322;50.872;4.386;2023-06-19T10:55:42;7.72;;;5.90;;
14472;SDS011;7322;50.872;4.386;2023-06-19T10:58:09;7.82;;;7.03;;
14472;SDS011;7322;50.872;4.386;2023-06-19T11:00:49;7.43;;;6.57;;
14472;SDS011;7322;50.872;4.386;2023-06-19T11:03:24;10.88;;;6.50;;
14472;SDS011;7322;50.872;4.386;2023-06-19T11:05:57;7.32;;;6.43;;
14472;SDS011;7322;50.872;4.386;2023-06-19T11:08:33;9.70;;;6.93;;
14472;SDS011;7322;50.872;4.386;2023-06-19T11:11:00;8.38;;;6.43;;
14472;SDS011;7322;50.872;4.386;2023-06-19T11:18:59;7.47;;;5.97;;
14472;SDS011;7322;50.872;4.386;2023-06-19T11:21:35;7.78;;;5.95;;
14472;SDS011;7322;50.872;4.386;2023-06-19T11:24:13;7.85;;;5.90;;
14472;SDS011;7322;50.872;4.386;2023-06-19T11:26:57;6.68;;;6.07;;
14472;SDS011;7322;50.872;4.386;2023-06-19T11:29:42;9.05;;;6.53;;
14472;SDS011;7322;50.872;4.386;2023-06-19T11:32:16;12.25;;;7.53;;
14472;SDS011;7322;50.872;4.386;2023-06-19T11:37:58;9.48;;;6.70;;
14472;SDS011;7322;50.872;4.386;2023-06-19T11:43:27;9.82;;;7.70;;
14472;SDS011;7322;50.872;4.386;2023-06-19T11:45:59;12.50;;;8.45;;
14472;SDS011;7322;50.872;4.386;2023-06-19T11:48:42;10.73;;;7.75;;
14472;SDS011;7322;50.872;4.386;2023-06-19T11:51:12;10.02;;;7.50;;
14472;SDS011;7322;50.872;4.386;2023-06-19T11:53:54;10.27;;;7.45;;
14472;SDS011;7322;50.872;4.386;2023-06-19T11:56:21;12.02;;;8.35;;
14472;SDS011;7322;50.872;4.386;2023-06-19T12:01:42;9.85;;;7.95;;
14472;SDS011;7322;50.872;4.386;2023-06-19T12:04:09;9.68;;;7.90;;
14472;SDS011;7322;50.872;4.386;2023-06-19T12:06:54;8.20;;;7.32;;
14472;SDS011;7322;50.872;4.386;2023-06-19T12:09:27;11.40;;;8.23;;
14472;SDS011;7322;50.872;4.386;2023-06-19T12:12:00;10.20;;;8.57;;
14472;SDS011;7322;50.872;4.386;2023-06-19T12:14:27;9.18;;;7.57;;
14472;SDS011;7322;50.872;4.386;2023-06-19T12:19:27;8.75;;;7.85;;
14472;SDS011;7322;50.872;4.386;2023-06-19T12:27:24;7.65;;;6.78;;
14472;SDS011;7322;50.872;4.386;2023-06-19T12:30:05;7.90;;;7.10;;
14472;SDS011;7322;50.872;4.386;2023-06-19T12:32:37;8.23;;;6.93;;
14472;SDS011;7322;50.872;4.386;2023-06-19T12:35:06;11.55;;;8.20;;
14472;SDS011;7322;50.872;4.386;2023-06-19T12:40:39;10.55;;;7.28;;
14472;SDS011;7322;50.872;4.386;2023-06-19T12:43:06;8.95;;;7.32;;
14472;SDS011;7322;50.872;4.386;2023-06-19T12:45:39;9.60;;;7.47;;
14472;SDS011;7322;50.872;4.386;2023-06-19T12:48:08;10.27;;;7.45;;
14472;SDS011;7322;50.872;4.386;2023-06-19T12:50:36;9.70;;;7.50;;
14472;SDS011;7322;50.872;4.386;2023-06-19T12:53:04;9.02;;;7.30;;
14472;SDS011;7322;50.872;4.386;2023-06-19T12:58:27;10.13;;;7.22;;
14472;SDS011;7322;50.872;4.386;2023-06-19T13:01:00;8.85;;;6.30;;
14472;SDS011;7322;50.872;4.386;2023-06-19T13:03:27;8.85;;;7.28;;
14472;SDS011;7322;50.872;4.386;2023-06-19T13:05:57;9.85;;;6.97;;
14472;SDS011;7322;50.872;4.386;2023-06-19T13:08:25;11.10;;;6.85;;
14472;SDS011;7322;50.872;4.386;2023-06-19T13:11:00;9.25;;;6.10;;
14472;SDS011;7322;50.872;4.386;2023-06-19T13:13:34;7.93;;;6.90;;
14472;SDS011;7322;50.872;4.386;2023-06-19T13:16:02;9.63;;;7.10;;
14472;SDS011;7322;50.872;4.386;2023-06-19T13:18:34;6.93;;;5.78;;
14472;SDS011;7322;50.872;4.386;2023-06-19T13:21:07;7.10;;;6.40;;
14472;SDS011;7322;50.872;4.386;2023-06-19T13:23:34;6.65;;;5.90;;
14472;SDS011;7322;50.872;4.386;2023-06-19T13:26:04;7.63;;;6.35;;
14472;SDS011;7322;50.872;4.386;2023-06-19T13:28:39;7.40;;;5.88;;
14472;SDS011;7322;50.872;4.386;2023-06-19T13:31:08;7.82;;;5.70;;
14472;SDS011;7322;50.872;4.386;2023-06-19T13:33:41;7.50;;;5.95;;
14472;SDS011;7322;50.872;4.386;2023-06-19T13:36:09;6.35;;;5.60;;
14472;SDS011;7322;50.872;4.386;2023-06-19T13:41:52;6.88;;;6.18;;
14472;SDS011;7322;50.872;4.386;2023-06-19T13:46:54;8.15;;;5.70;;
14472;SDS011;7322;50.872;4.386;2023-06-19T13:49:27;5.75;;;5.15;;
14472;SDS011;7322;50.872;4.386;2023-06-19T13:54:27;6.18;;;5.50;;
14472;SDS011;7322;50.872;4.386;2023-06-19T13:57:02;8.38;;;5.75;;
14472;SDS011;7322;50.872;4.386;2023-06-19T13:59:41;7.05;;;5.22;;
14472;SDS011;7322;50.872;4.386;2023-06-19T14:02:08;6.07;;;5.35;;
14472;SDS011;7322;50.872;4.386;2023-06-19T14:04:36;7.22;;;5.50;;
14472;SDS011;7322;50.872;4.386;2023-06-19T14:07:03;7.22;;;5.43;;
14472;SDS011;7322;50.872;4.386;2023-06-19T14:09:31;7.38;;;5.32;;
14472;SDS011;7322;50.872;4.386;2023-06-19T14:11:58;9.10;;;5.72;;
14472;SDS011;7322;50.872;4.386;2023-06-19T14:14:28;8.63;;;5.53;;
14472;SDS011;7322;50.872;4.386;2023-06-19T14:16:56;8.80;;;5.15;;
14472;SDS011;7322;50.872;4.386;2023-06-19T14:19:23;5.82;;;5.22;;
14472;SDS011;7322;50.872;4.386;2023-06-19T14:21:50;6.03;;;4.95;;
14472;SDS011;7322;50.872;4.386;2023-06-19T14:24:18;6.00;;;5.35;;
14472;SDS011;7322;50.872;4.386;2023-06-19T14:26:47;6.78;;;5.15;;
14472;SDS011;7322;50.872;4.386;2023-06-19T14:29:16;5.75;;;5.10;;
14472;SDS011;7322;50.872;4.386;2023-06-19T14:34:19;6.32;;;5.20;;
14472;SDS011;7322;50.872;4.386;2023-06-19T14:36:48;7.22;;;5.43;;
14472;SDS011;7322;50.872;4.386;2023-06-19T14:39:17;7.78;;;5.00;;
14472;SDS011;7322;50.872;4.386;2023-06-19T14:41:48;8.93;;;5.03;;
14472;SDS011;7322;50.872;4.386;2023-06-19T14:44:24;5.60;;;4.90;;
14472;SDS011;7322;50.872;4.386;2023-06-19T14:47:07;6.20;;;4.55;;
14472;SDS011;7322;50.872;4.386;2023-06-19T14:49:55;5.32;;;4.30;;
14472;SDS011;7322;50.872;4.386;2023-06-19T14:52:24;4.65;;;4.13;;
14472;SDS011;7322;50.872;4.386;2023-06-19T14:54:51;5.05;;;4.55;;
14472;SDS011;7322;50.872;4.386;2023-06-19T14:57:27;6.63;;;4.90;;
14472;SDS011;7322;50.872;4.386;2023-06-19T14:59:55;7.50;;;4.68;;
14472;SDS011;7322;50.872;4.386;2023-06-19T15:02:24;5.80;;;4.30;;
14472;SDS011;7322;50.872;4.386;2023-06-19T15:04:57;5.30;;;4.68;;
14472;SDS011;7322;50.872;4.386;2023-06-19T15:07:26;7.03;;;5.10;;
14472;SDS011;7322;50.872;4.386;2023-06-19T15:10:08;6.30;;;4.57;;
14472;SDS011;7322;50.872;4.386;2023-06-19T15:12:44;6.68;;;5.25;;
14472;SDS011;7322;50.872;4.386;2023-06-19T15:18:10;5.15;;;4.65;;
14472;SDS011;7322;50.872;4.386;2023-06-19T15:20:39;5.68;;;4.85;;
14472;SDS011;7322;50.872;4.386;2023-06-19T15:23:14;4.55;;;4.15;;
14472;SDS011;7322;50.872;4.386;2023-06-19T15:25:43;5.32;;;4.75;;
14472;SDS011;7322;50.872;4.386;2023-06-19T15:28:16;5.90;;;4.55;;
14472;SDS011;7322;50.872;4.386;2023-06-19T15:30:43;6.57;;;4.50;;
14472;SDS011;7322;50.872;4.386;2023-06-19T15:33:12;6.60;;;4.22;;
14472;SDS011;7322;50.872;4.386;2023-06-19T15:38:23;7.05;;;4.57;;
14472;SDS011;7322;50.872;4.386;2023-06-19T15:46:09;5.32;;;4.20;;
14472;SDS011;7322;50.872;4.386;2023-06-19T15:48:39;5.50;;;4.25;;
14472;SDS011;7322;50.872;4.386;2023-06-19T15:51:07;5.57;;;4.28;;
14472;SDS011;7322;50.872;4.386;2023-06-19T15:53:38;6.22;;;4.10;;
14472;SDS011;7322;50.872;4.386;2023-06-19T15:56:05;7.13;;;4.07;;
14472;SDS011;7322;50.872;4.386;2023-06-19T15:58:48;4.57;;;4.18;;
14472;SDS011;7322;50.872;4.386;2023-06-19T16:03:56;4.82;;;4.25;;
14472;SDS011;7322;50.872;4.386;2023-06-19T16:06:30;5.07;;;4.25;;
14472;SDS011;7322;50.872;4.386;2023-06-19T16:08:58;6.15;;;4.10;;
14472;SDS011;7322;50.872;4.386;2023-06-19T16:11:27;4.95;;;3.70;;
14472;SDS011;7322;50.872;4.386;2023-06-19T16:20:13;4.88;;;3.63;;
14472;SDS011;7322;50.872;4.386;2023-06-19T16:22:49;4.68;;;3.80;;
14472;SDS011;7322;50.872;4.386;2023-06-19T16:25:22;6.13;;;4.45;;
14472;SDS011;7322;50.872;4.386;2023-06-19T16:27:50;5.88;;;3.85;;
14472;SDS011;7322;50.872;4.386;2023-06-19T16:30:17;5.10;;;4.10;;
14472;SDS011;7322;50.872;4.386;2023-06-19T16:32:47;5.30;;;4.50;;
14472;SDS011;7322;50.872;4.386;2023-06-19T16:37:54;4.75;;;4.25;;
14472;SDS011;7322;50.872;4.386;2023-06-19T16:43:08;5.07;;;4.20;;
14472;SDS011;7322;50.872;4.386;2023-06-19T16:45:36;5.85;;;4.20;;
14472;SDS011;7322;50.872;4.386;2023-06-19T16:48:08;5.57;;;4.53;;
14472;SDS011;7322;50.872;4.386;2023-06-19T16:50:39;4.70;;;4.30;;
14472;SDS011;7322;50.872;4.386;2023-06-19T16:53:09;5.28;;;4.10;;
14472;SDS011;7322;50.872;4.386;2023-06-19T16:55:43;4.93;;;3.92;;
14472;SDS011;7322;50.872;4.386;2023-06-19T16:58:11;4.95;;;4.07;;
14472;SDS011;7322;50.872;4.386;2023-06-19T17:00:38;5.93;;;4.43;;
14472;SDS011;7322;50.872;4.386;2023-06-19T17:03:06;4.82;;;4.43;;
14472;SDS011;7322;50.872;4.386;2023-06-19T17:05:35;4.78;;;4.28;;
14472;SDS011;7322;50.872;4.386;2023-06-19T17:08:11;4.38;;;3.97;;
14472;SDS011;7322;50.872;4.386;2023-06-19T17:10:44;4.65;;;4.20;;
14472;SDS011;7322;50.872;4.386;2023-06-19T17:13:18;4.95;;;4.28;;
14472;SDS011;7322;50.872;4.386;2023-06-19T17:15:49;6.63;;;4.35;;
14472;SDS011;7322;50.872;4.386;2023-06-19T17:18:16;4.90;;;4.30;;
14472;SDS011;7322;50.872;4.386;2023-06-19T17:20:52;4.70;;;4.22;;
14472;SDS011;7322;50.872;4.386;2023-06-19T17:23:28;4.78;;;4.28;;
14472;SDS011;7322;50.872;4.386;2023-06-19T17:25:58;5.30;;;4.68;;
14472;SDS011;7322;50.872;4.386;2023-06-19T17:28:30;7.10;;;4.97;;
14472;SDS011;7322;50.872;4.386;2023-06-19T17:30:59;7.57;;;4.63;;
14472;SDS011;7322;50.872;4.386;2023-06-19T17:33:27;4.95;;;4.40;;
14472;SDS011;7322;50.872;4.386;2023-06-19T17:35:57;5.00;;;4.47;;
14472;SDS011;7322;50.872;4.386;2023-06-19T17:38:38;6.93;;;4.82;;
14472;SDS011;7322;50.872;4.386;2023-06-19T17:41:07;5.85;;;4.07;;
14472;SDS011;7322;50.872;4.386;2023-06-19T17:43:50;5.47;;;4.97;;
14472;SDS011;7322;50.872;4.386;2023-06-19T17:46:17;4.90;;;3.95;;
14472;SDS011;7322;50.872;4.386;2023-06-19T17:48:45;5.00;;;4.13;;
14472;SDS011;7322;50.872;4.386;2023-06-19T17:51:13;6.45;;;4.07;;
14472;SDS011;7322;50.872;4.386;2023-06-19T17:53:48;4.95;;;3.92;;
14472;SDS011;7322;50.872;4.386;2023-06-19T17:56:17;4.47;;;3.97;;
14472;SDS011;7322;50.872;4.386;2023-06-19T17:58:45;5.20;;;4.35;;
14472;SDS011;7322;50.872;4.386;2023-06-19T18:01:16;5.97;;;4.18;;
14472;SDS011;7322;50.872;4.386;2023-06-19T18:03:45;5.40;;;4.05;;
14472;SDS011;7322;50.872;4.386;2023-06-19T18:06:26;4.13;;;3.75;;
14472;SDS011;7322;50.872;4.386;2023-06-19T18:09:01;5.68;;;3.95;;
14472;SDS011;7322;50.872;4.386;2023-06-19T18:11:49;3.97;;;3.67;;
14472;SDS011;7322;50.872;4.386;2023-06-19T18:17:15;5.97;;;4.35;;
14472;SDS011;7322;50.872;4.386;2023-06-19T18:19:43;4.65;;;4.10;;
14472;SDS011;7322;50.872;4.386;2023-06-19T18:24:44;4.60;;;4.20;;
14472;SDS011;7322;50.872;4.386;2023-06-19T18:27:13;4.00;;;3.60;;
14472;SDS011;7322;50.872;4.386;2023-06-19T18:29:40;5.25;;;4.20;;
14472;SDS011;7322;50.872;4.386;2023-06-19T18:32:07;4.85;;;4.30;;
14472;SDS011;7322;50.872;4.386;2023-06-19T18:34:36;4.60;;;4.00;;
14472;SDS011;7322;50.872;4.386;2023-06-19T18:37:04;5.60;;;4.40;;
14472;SDS011;7322;50.872;4.386;2023-06-19T18:39:35;4.70;;;4.20;;
14472;SDS011;7322;50.872;4.386;2023-06-19T18:42:04;4.72;;;4.07;;
14472;SDS011;7322;50.872;4.386;2023-06-19T18:44:32;4.95;;;4.35;;
14472;SDS011;7322;50.872;4.386;2023-06-19T18:47:05;6.47;;;4.32;;
14472;SDS011;7322;50.872;4.386;2023-06-19T18:49:32;5.45;;;4.50;;
14472;SDS011;7322;50.872;4.386;2023-06-19T18:51:59;4.93;;;4.53;;
14472;SDS011;7322;50.872;4.386;2023-06-19T18:54:27;5.93;;;4.75;;
14472;SDS011;7322;50.872;4.386;2023-06-19T18:56:54;5.38;;;4.43;;
14472;SDS011;7322;50.872;4.386;2023-06-19T18:59:23;5.68;;;4.60;;
14472;SDS011;7322;50.872;4.386;2023-06-19T19:01:52;7.47;;;5.10;;
14472;SDS011;7322;50.872;4.386;2023-06-19T19:04:31;5.35;;;4.47;;
14472;SDS011;7322;50.872;4.386;2023-06-19T19:06:59;5.93;;;4.57;;
14472;SDS011;7322;50.872;4.386;2023-06-19T19:09:26;7.10;;;4.82;;
14472;SDS011;7322;50.872;4.386;2023-06-19T19:12:03;6.35;;;4.53;;
14472;SDS011;7322;50.872;4.386;2023-06-19T19:14:38;6.30;;;4.65;;
14472;SDS011;7322;50.872;4.386;2023-06-19T19:17:11;5.32;;;4.53;;
14472;SDS011;7322;50.872;4.386;2023-06-19T19:19:45;7.22;;;4.57;;
14472;SDS011;7322;50.872;4.386;2023-06-19T19:22:15;4.97;;;4.53;;
14472;SDS011;7322;50.872;4.386;2023-06-19T19:24:48;5.40;;;4.85;;
14472;SDS011;7322;50.872;4.386;2023-06-19T19:29:53;6.75;;;4.65;;
14472;SDS011;7322;50.872;4.386;2023-06-19T19:32:21;6.93;;;4.63;;
14472;SDS011;7322;50.872;4.386;2023-06-19T19:34:53;16.25;;;14.85;;
14472;SDS011;7322;50.872;4.386;2023-06-19T19:37:28;18.45;;;16.55;;
14472;SDS011;7322;50.872;4.386;2023-06-19T19:40:03;12.88;;;11.57;;
14472;SDS011;7322;50.872;4.386;2023-06-19T19:42:39;13.00;;;11.52;;
14472;SDS011;7322;50.872;4.386;2023-06-19T19:47:38;12.93;;;11.70;;
14472;SDS011;7322;50.872;4.386;2023-06-19T19:50:11;12.38;;;11.07;;
14472;SDS011;7322;50.872;4.386;2023-06-19T19:52:39;12.05;;;10.07;;
14472;SDS011;7322;50.872;4.386;2023-06-19T19:55:07;10.82;;;9.70;;
14472;SDS011;7322;50.872;4.386;2023-06-19T19:57:40;11.18;;;9.45;;
14472;SDS011;7322;50.872;4.386;2023-06-19T20:00:10;9.80;;;8.82;;
14472;SDS011;7322;50.872;4.386;2023-06-19T20:02:42;9.18;;;8.27;;
14472;SDS011;7322;50.872;4.386;2023-06-19T20:05:12;8.48;;;7.53;;
14472;SDS011;7322;50.872;4.386;2023-06-19T20:07:40;7.93;;;7.15;;
14472;SDS011;7322;50.872;4.386;2023-06-19T20:10:13;8.43;;;7.50;;
14472;SDS011;7322;50.872;4.386;2023-06-19T20:12:44;7.90;;;6.63;;
14472;SDS011;7322;50.872;4.386;2023-06-19T20:15:13;8.27;;;6.70;;
14472;SDS011;7322;50.872;4.386;2023-06-19T20:17:40;6.97;;;6.28;;
14472;SDS011;7322;50.872;4.386;2023-06-19T20:20:08;6.95;;;6.25;;
14472;SDS011;7322;50.872;4.386;2023-06-19T20:22:43;7.70;;;6.30;;
14472;SDS011;7322;50.872;4.386;2023-06-19T20:25:10;7.97;;;6.55;;
14472;SDS011;7322;50.872;4.386;2023-06-19T20:27:39;7.65;;;6.85;;
14472;SDS011;7322;50.872;4.386;2023-06-19T20:30:07;8.50;;;6.57;;
14472;SDS011;7322;50.872;4.386;2023-06-19T20:32:36;6.93;;;6.25;;
14472;SDS011;7322;50.872;4.386;2023-06-19T20:35:04;6.93;;;6.22;;
14472;SDS011;7322;50.872;4.386;2023-06-19T20:37:31;6.75;;;6.15;;
14472;SDS011;7322;50.872;4.386;2023-06-19T20:39:59;7.43;;;6.05;;
14472;SDS011;7322;50.872;4.386;2023-06-19T20:42:27;6.22;;;5.63;;
14472;SDS011;7322;50.872;4.386;2023-06-19T20:44:54;7.47;;;6.50;;
14472;SDS011;7322;50.872;4.386;2023-06-19T20:47:21;6.55;;;5.95;;